sensor_id;sensor_type;location;lat;lon;timestamp;pressure;altitude;pressure_sealevel;temperature;humidity
62051;BME280;48008;51.204;6.766;2022-08-21T00:00:11;101284.78;;;18.64;73.88
62051;BME280;48008;51.204;6.766;2022-08-21T00:02:45;101286.47;;;18.65;73.76
62051;BME280;48008;51.204;6.766;2022-08-21T00:05:12;101288.91;;;18.60;73.88
62051;BME280;48008;51.204;6.766;2022-08-21T00:07:39;101286.59;;;18.57;73.29
62051;BME280;48008;51.204;6.766;2022-08-21T00:10:06;101283.72;;;18.58;74.21
62051;BME280;48008;51.204;6.766;2022-08-21T00:12:33;101280.78;;;18.53;74.37
62051;BME280;48008;51.204;6.766;2022-08-21T00:14:59;101279.56;;;18.56;74.52
62051;BME280;48008;51.204;6.766;2022-08-21T00:17:26;101275.41;;;18.53;74.68
62051;BME280;48008;51.204;6.766;2022-08-21T00:19:53;101273.94;;;18.51;74.15
62051;BME280;48008;51.204;6.766;2022-08-21T00:22:20;101271.44;;;18.49;74.78
62051;BME280;48008;51.204;6.766;2022-08-21T00:24:46;101264.44;;;18.48;74.68
62051;BME280;48008;51.204;6.766;2022-08-21T00:27:13;101259.06;;;18.48;74.71
62051;BME280;48008;51.204;6.766;2022-08-21T00:29:40;101254.06;;;18.45;75.23
62051;BME280;48008;51.204;6.766;2022-08-21T00:32:07;101246.44;;;18.49;74.60
62051;BME280;48008;51.204;6.766;2022-08-21T00:34:34;101250.13;;;18.41;74.65
62051;BME280;48008;51.204;6.766;2022-08-21T00:37:00;101255.47;;;18.41;74.78
62051;BME280;48008;51.204;6.766;2022-08-21T00:39:27;101252.56;;;18.42;74.31
62051;BME280;48008;51.204;6.766;2022-08-21T00:41:54;101252.56;;;18.42;74.12
62051;BME280;48008;51.204;6.766;2022-08-21T00:44:20;101262.84;;;18.32;74.75
62051;BME280;48008;51.204;6.766;2022-08-21T00:46:47;101257.94;;;18.42;74.57
62051;BME280;48008;51.204;6.766;2022-08-21T00:49:16;101254.81;;;18.39;74.53
62051;BME280;48008;51.204;6.766;2022-08-21T00:51:49;101251.69;;;18.35;74.66
62051;BME280;48008;51.204;6.766;2022-08-21T00:54:20;101249.44;;;18.39;75.04
62051;BME280;48008;51.204;6.766;2022-08-21T00:56:52;101253.19;;;18.38;74.81
62051;BME280;48008;51.204;6.766;2022-08-21T00:59:20;101249.59;;;18.31;75.09
62051;BME280;48008;51.204;6.766;2022-08-21T01:01:48;101252.28;;;18.31;75.48
62051;BME280;48008;51.204;6.766;2022-08-21T01:04:16;101256.13;;;18.21;76.36
62051;BME280;48008;51.204;6.766;2022-08-21T01:06:43;101255.31;;;18.21;76.71
62051;BME280;48008;51.204;6.766;2022-08-21T01:09:11;101253.19;;;18.16;77.14
62051;BME280;48008;51.204;6.766;2022-08-21T01:11:38;101254.13;;;18.09;77.34
62051;BME280;48008;51.204;6.766;2022-08-21T01:14:05;101254.66;;;17.97;78.27
62051;BME280;48008;51.204;6.766;2022-08-21T01:16:33;101260.03;;;17.97;79.13
62051;BME280;48008;51.204;6.766;2022-08-21T01:18:59;101260.75;;;17.91;79.30
62051;BME280;48008;51.204;6.766;2022-08-21T01:21:27;101256.44;;;17.90;80.13
62051;BME280;48008;51.204;6.766;2022-08-21T01:23:56;101260.69;;;17.84;80.69
62051;BME280;48008;51.204;6.766;2022-08-21T01:26:27;101254.13;;;17.87;81.01
62051;BME280;48008;51.204;6.766;2022-08-21T01:29:09;101253.81;;;17.82;80.93
62051;BME280;48008;51.204;6.766;2022-08-21T01:31:38;101264.09;;;17.78;81.05
62051;BME280;48008;51.204;6.766;2022-08-21T01:34:07;101259.78;;;17.77;81.97
62051;BME280;48008;51.204;6.766;2022-08-21T01:36:34;101255.78;;;17.73;81.24
62051;BME280;48008;51.204;6.766;2022-08-21T01:39:01;101266.16;;;17.76;81.79
62051;BME280;48008;51.204;6.766;2022-08-21T01:41:28;101262.91;;;17.81;80.99
62051;BME280;48008;51.204;6.766;2022-08-21T01:43:55;101259.88;;;17.69;82.31
62051;BME280;48008;51.204;6.766;2022-08-21T01:46:21;101263.81;;;17.73;82.29
62051;BME280;48008;51.204;6.766;2022-08-21T01:48:49;101255.09;;;17.64;82.38
62051;BME280;48008;51.204;6.766;2022-08-21T01:51:15;101251.00;;;17.69;82.19
62051;BME280;48008;51.204;6.766;2022-08-21T01:53:42;101249.25;;;17.61;81.78
62051;BME280;48008;51.204;6.766;2022-08-21T01:56:12;101246.94;;;17.58;81.13
62051;BME280;48008;51.204;6.766;2022-08-21T01:58:40;101246.94;;;17.58;81.66
62051;BME280;48008;51.204;6.766;2022-08-21T02:01:08;101251.31;;;17.44;82.76
62051;BME280;48008;51.204;6.766;2022-08-21T02:03:35;101249.25;;;17.46;82.70
62051;BME280;48008;51.204;6.766;2022-08-21T02:06:04;101253.97;;;17.44;83.35
62051;BME280;48008;51.204;6.766;2022-08-21T02:08:31;101252.16;;;17.44;82.84
62051;BME280;48008;51.204;6.766;2022-08-21T02:10:59;101256.50;;;17.31;83.72
62051;BME280;48008;51.204;6.766;2022-08-21T02:13:26;101256.13;;;17.34;83.78
62051;BME280;48008;51.204;6.766;2022-08-21T02:15:53;101250.56;;;17.35;83.77
62051;BME280;48008;51.204;6.766;2022-08-21T02:18:19;101251.59;;;17.34;83.26
62051;BME280;48008;51.204;6.766;2022-08-21T02:20:48;101241.69;;;17.35;83.22
62051;BME280;48008;51.204;6.766;2022-08-21T02:23:15;101248.56;;;17.37;83.49
62051;BME280;48008;51.204;6.766;2022-08-21T02:25:42;101244.94;;;17.30;83.76
62051;BME280;48008;51.204;6.766;2022-08-21T02:28:11;101259.09;;;17.24;84.06
62051;BME280;48008;51.204;6.766;2022-08-21T02:30:42;101252.25;;;17.21;84.14
62051;BME280;48008;51.204;6.766;2022-08-21T02:33:10;101244.22;;;17.21;84.47
62051;BME280;48008;51.204;6.766;2022-08-21T02:35:40;101243.56;;;17.19;84.70
62051;BME280;48008;51.204;6.766;2022-08-21T02:38:11;101239.03;;;17.20;84.96
62051;BME280;48008;51.204;6.766;2022-08-21T02:40:40;101243.94;;;17.16;85.18
62051;BME280;48008;51.204;6.766;2022-08-21T02:43:07;101244.47;;;17.12;85.49
62051;BME280;48008;51.204;6.766;2022-08-21T02:45:34;101239.56;;;17.15;85.65
62051;BME280;48008;51.204;6.766;2022-08-21T02:48:05;101246.50;;;17.10;85.44
62051;BME280;48008;51.204;6.766;2022-08-21T02:50:36;101244.41;;;17.05;85.74
62051;BME280;48008;51.204;6.766;2022-08-21T02:53:04;101240.22;;;17.02;85.62
62051;BME280;48008;51.204;6.766;2022-08-21T02:55:34;101245.97;;;16.99;85.96
62051;BME280;48008;51.204;6.766;2022-08-21T02:58:04;101242.72;;;17.04;85.75
62051;BME280;48008;51.204;6.766;2022-08-21T03:00:32;101238.28;;;16.96;86.11
62051;BME280;48008;51.204;6.766;2022-08-21T03:02:59;101239.41;;;17.02;86.06
62051;BME280;48008;51.204;6.766;2022-08-21T03:05:27;101244.19;;;16.92;85.91
62051;BME280;48008;51.204;6.766;2022-08-21T03:07:58;101236.06;;;16.85;85.91
62051;BME280;48008;51.204;6.766;2022-08-21T03:10:25;101236.25;;;16.83;86.35
62051;BME280;48008;51.204;6.766;2022-08-21T03:12:52;101237.91;;;16.84;86.62
62051;BME280;48008;51.204;6.766;2022-08-21T03:15:22;101223.69;;;16.84;86.75
62051;BME280;48008;51.204;6.766;2022-08-21T03:17:50;101230.88;;;16.83;86.95
62051;BME280;48008;51.204;6.766;2022-08-21T03:20:19;101236.56;;;16.80;87.21
62051;BME280;48008;51.204;6.766;2022-08-21T03:22:49;101223.75;;;16.76;86.94
62051;BME280;48008;51.204;6.766;2022-08-21T03:25:16;101231.72;;;16.84;86.79
62051;BME280;48008;51.204;6.766;2022-08-21T03:27:44;101229.84;;;16.84;86.74
62051;BME280;48008;51.204;6.766;2022-08-21T03:30:11;101232.91;;;16.81;87.07
62051;BME280;48008;51.204;6.766;2022-08-21T03:32:38;101234.00;;;16.72;87.80
62051;BME280;48008;51.204;6.766;2022-08-21T03:35:05;101232.13;;;16.73;87.53
62051;BME280;48008;51.204;6.766;2022-08-21T03:37:33;101235.28;;;16.76;87.71
62051;BME280;48008;51.204;6.766;2022-08-21T03:40:00;101234.63;;;16.74;87.59
62051;BME280;48008;51.204;6.766;2022-08-21T03:42:26;101228.53;;;16.65;87.63
62051;BME280;48008;51.204;6.766;2022-08-21T03:44:53;101235.72;;;16.65;87.58
62051;BME280;48008;51.204;6.766;2022-08-21T03:47:20;101231.66;;;16.69;87.55
62051;BME280;48008;51.204;6.766;2022-08-21T03:49:48;101234.34;;;16.69;86.95
62051;BME280;48008;51.204;6.766;2022-08-21T03:52:16;101225.19;;;16.63;86.57
62051;BME280;48008;51.204;6.766;2022-08-21T03:54:44;101228.22;;;16.60;86.41
62051;BME280;48008;51.204;6.766;2022-08-21T03:57:11;101238.59;;;16.63;86.10
62051;BME280;48008;51.204;6.766;2022-08-21T03:59:38;101241.44;;;16.62;86.13
62051;BME280;48008;51.204;6.766;2022-08-21T04:02:06;101244.31;;;16.60;86.58
62051;BME280;48008;51.204;6.766;2022-08-21T04:04:33;101243.19;;;16.55;86.00
62051;BME280;48008;51.204;6.766;2022-08-21T04:07:01;101254.94;;;16.54;86.10
62051;BME280;48008;51.204;6.766;2022-08-21T04:09:28;101260.94;;;16.56;85.27
62051;BME280;48008;51.204;6.766;2022-08-21T04:11:56;101256.66;;;16.46;85.56
62051;BME280;48008;51.204;6.766;2022-08-21T04:14:23;101259.69;;;16.43;85.86
62051;BME280;48008;51.204;6.766;2022-08-21T04:16:50;101267.94;;;16.57;86.05
62051;BME280;48008;51.204;6.766;2022-08-21T04:19:16;101259.13;;;16.48;86.00
62051;BME280;48008;51.204;6.766;2022-08-21T04:21:43;101271.66;;;16.33;86.94
62051;BME280;48008;51.204;6.766;2022-08-21T04:24:10;101269.41;;;16.21;88.01
62051;BME280;48008;51.204;6.766;2022-08-21T04:26:37;101268.78;;;16.11;88.61
62051;BME280;48008;51.204;6.766;2022-08-21T04:29:04;101267.63;;;16.14;88.41
62051;BME280;48008;51.204;6.766;2022-08-21T04:31:35;101268.63;;;16.12;88.76
62051;BME280;48008;51.204;6.766;2022-08-21T04:34:04;101270.56;;;16.19;88.41
62051;BME280;48008;51.204;6.766;2022-08-21T04:36:32;101258.72;;;16.13;88.15
62051;BME280;48008;51.204;6.766;2022-08-21T04:39:00;101267.78;;;16.12;88.47
62051;BME280;48008;51.204;6.766;2022-08-21T04:41:28;101264.94;;;16.14;88.23
62051;BME280;48008;51.204;6.766;2022-08-21T04:43:54;101261.25;;;16.15;88.26
62051;BME280;48008;51.204;6.766;2022-08-21T04:46:22;101262.91;;;16.16;88.24
62051;BME280;48008;51.204;6.766;2022-08-21T04:48:49;101271.78;;;16.16;88.42
62051;BME280;48008;51.204;6.766;2022-08-21T04:51:20;101271.94;;;16.15;88.46
62051;BME280;48008;51.204;6.766;2022-08-21T04:53:52;101271.59;;;16.18;88.60
62051;BME280;48008;51.204;6.766;2022-08-21T04:56:23;101270.28;;;16.14;88.56
62051;BME280;48008;51.204;6.766;2022-08-21T04:58:53;101269.91;;;16.17;88.25
62051;BME280;48008;51.204;6.766;2022-08-21T05:01:24;101272.53;;;16.25;87.84
62051;BME280;48008;51.204;6.766;2022-08-21T05:03:55;101272.41;;;16.18;87.97
62051;BME280;48008;51.204;6.766;2022-08-21T05:06:23;101273.53;;;16.24;87.55
62051;BME280;48008;51.204;6.766;2022-08-21T05:08:52;101265.81;;;16.29;87.50
62051;BME280;48008;51.204;6.766;2022-08-21T05:11:21;101267.69;;;16.28;87.66
62051;BME280;48008;51.204;6.766;2022-08-21T05:13:49;101270.34;;;16.28;87.06
62051;BME280;48008;51.204;6.766;2022-08-21T05:16:16;101276.34;;;16.30;87.24
62051;BME280;48008;51.204;6.766;2022-08-21T05:18:43;101286.03;;;16.31;86.65
62051;BME280;48008;51.204;6.766;2022-08-21T05:21:10;101288.44;;;16.26;87.45
62051;BME280;48008;51.204;6.766;2022-08-21T05:23:36;101288.59;;;16.25;87.72
62051;BME280;48008;51.204;6.766;2022-08-21T05:26:03;101285.06;;;16.24;87.64
62051;BME280;48008;51.204;6.766;2022-08-21T05:28:31;101282.41;;;16.24;88.12
62051;BME280;48008;51.204;6.766;2022-08-21T05:30:58;101289.09;;;16.28;87.71
62051;BME280;48008;51.204;6.766;2022-08-21T05:33:25;101289.25;;;16.27;86.81
62051;BME280;48008;51.204;6.766;2022-08-21T05:35:53;101296.25;;;16.28;87.42
62051;BME280;48008;51.204;6.766;2022-08-21T05:38:24;101294.53;;;16.35;86.68
62051;BME280;48008;51.204;6.766;2022-08-21T05:40:54;101292.88;;;16.34;86.88
62051;BME280;48008;51.204;6.766;2022-08-21T05:43:21;101292.41;;;16.30;86.26
62051;BME280;48008;51.204;6.766;2022-08-21T05:45:47;101297.41;;;16.34;86.37
62051;BME280;48008;51.204;6.766;2022-08-21T05:48:17;101298.25;;;16.34;86.62
62051;BME280;48008;51.204;6.766;2022-08-21T05:50:45;101302.41;;;16.37;85.69
62051;BME280;48008;51.204;6.766;2022-08-21T05:50:46;101302.41;;;16.37;85.69
62051;BME280;48008;51.204;6.766;2022-08-21T05:53:14;101296.56;;;16.33;85.25
62051;BME280;48008;51.204;6.766;2022-08-21T05:55:43;101296.75;;;16.31;85.96
62051;BME280;48008;51.204;6.766;2022-08-21T05:58:13;101298.56;;;16.39;85.63
62051;BME280;48008;51.204;6.766;2022-08-21T06:00:40;101290.63;;;16.46;85.44
62051;BME280;48008;51.204;6.766;2022-08-21T06:03:12;101293.59;;;16.51;84.68
62051;BME280;48008;51.204;6.766;2022-08-21T06:05:39;101292.13;;;16.48;84.30
62051;BME280;48008;51.204;6.766;2022-08-21T06:08:06;101284.44;;;16.45;83.21
62051;BME280;48008;51.204;6.766;2022-08-21T06:10:33;101287.09;;;16.45;83.87
62051;BME280;48008;51.204;6.766;2022-08-21T06:12:59;101280.81;;;16.38;81.48
62051;BME280;48008;51.204;6.766;2022-08-21T06:15:26;101289.13;;;16.43;80.40
62051;BME280;48008;51.204;6.766;2022-08-21T06:17:53;101291.63;;;16.45;82.24
62051;BME280;48008;51.204;6.766;2022-08-21T06:20:21;101292.41;;;16.54;80.47
62051;BME280;48008;51.204;6.766;2022-08-21T06:22:48;101286.72;;;16.72;77.50
62051;BME280;48008;51.204;6.766;2022-08-21T06:25:15;101282.91;;;16.66;76.04
62051;BME280;48008;51.204;6.766;2022-08-21T06:27:41;101283.66;;;16.60;75.10
62051;BME280;48008;51.204;6.766;2022-08-21T06:30:09;101291.44;;;16.69;75.28
62051;BME280;48008;51.204;6.766;2022-08-21T06:32:36;101289.66;;;16.62;73.93
62051;BME280;48008;51.204;6.766;2022-08-21T06:35:03;101298.00;;;16.67;73.72
62051;BME280;48008;51.204;6.766;2022-08-21T06:37:30;101298.69;;;16.84;72.82
62051;BME280;48008;51.204;6.766;2022-08-21T06:39:57;101297.72;;;16.77;72.42
62051;BME280;48008;51.204;6.766;2022-08-21T06:42:25;101301.03;;;16.64;73.68
62051;BME280;48008;51.204;6.766;2022-08-21T06:44:54;101294.47;;;16.66;74.58
62051;BME280;48008;51.204;6.766;2022-08-21T06:47:21;101296.13;;;16.67;74.30
62051;BME280;48008;51.204;6.766;2022-08-21T06:49:47;101289.09;;;16.89;72.03
62051;BME280;48008;51.204;6.766;2022-08-21T06:52:14;101285.06;;;16.94;71.97
62051;BME280;48008;51.204;6.766;2022-08-21T06:54:41;101281.91;;;16.90;72.81
62051;BME280;48008;51.204;6.766;2022-08-21T06:57:08;101285.78;;;16.87;73.42
62051;BME280;48008;51.204;6.766;2022-08-21T06:59:35;101283.69;;;17.13;71.44
62051;BME280;48008;51.204;6.766;2022-08-21T07:02:02;101283.97;;;17.03;71.71
62051;BME280;48008;51.204;6.766;2022-08-21T07:04:28;101286.19;;;17.14;71.69
62051;BME280;48008;51.204;6.766;2022-08-21T07:06:55;101290.78;;;17.20;72.21
62051;BME280;48008;51.204;6.766;2022-08-21T07:09:22;101290.78;;;17.20;72.55
62051;BME280;48008;51.204;6.766;2022-08-21T07:11:52;101285.34;;;17.29;71.51
62051;BME280;48008;51.204;6.766;2022-08-21T07:14:20;101289.31;;;17.48;70.77
62051;BME280;48008;51.204;6.766;2022-08-21T07:16:48;101284.59;;;17.50;70.83
62051;BME280;48008;51.204;6.766;2022-08-21T07:19:15;101287.09;;;17.51;71.79
62051;BME280;48008;51.204;6.766;2022-08-21T07:21:42;101288.38;;;17.70;70.50
62051;BME280;48008;51.204;6.766;2022-08-21T07:24:09;101282.44;;;17.75;70.08
62051;BME280;48008;51.204;6.766;2022-08-21T07:26:36;101285.38;;;17.80;68.35
62051;BME280;48008;51.204;6.766;2022-08-21T07:29:03;101288.63;;;17.75;70.04
62051;BME280;48008;51.204;6.766;2022-08-21T07:31:30;101286.50;;;17.86;69.55
62051;BME280;48008;51.204;6.766;2022-08-21T07:33:57;101289.06;;;17.79;70.63
62051;BME280;48008;51.204;6.766;2022-08-21T07:36:24;101294.19;;;17.89;70.45
62051;BME280;48008;51.204;6.766;2022-08-21T07:38:51;101286.72;;;18.06;69.50
62051;BME280;48008;51.204;6.766;2022-08-21T07:41:20;101288.22;;;18.08;68.44
62051;BME280;48008;51.204;6.766;2022-08-21T07:43:49;101288.97;;;18.02;68.88
62051;BME280;48008;51.204;6.766;2022-08-21T07:46:15;101282.53;;;18.18;67.71
62051;BME280;48008;51.204;6.766;2022-08-21T07:48:42;101287.97;;;18.25;66.56
62051;BME280;48008;51.204;6.766;2022-08-21T07:51:12;101296.06;;;18.31;65.67
62051;BME280;48008;51.204;6.766;2022-08-21T07:53:39;101290.00;;;18.44;64.95
62051;BME280;48008;51.204;6.766;2022-08-21T07:56:06;101285.47;;;18.45;63.44
62051;BME280;48008;51.204;6.766;2022-08-21T07:58:34;101283.28;;;18.55;63.95
62051;BME280;48008;51.204;6.766;2022-08-21T08:01:01;101280.94;;;18.73;62.59
62051;BME280;48008;51.204;6.766;2022-08-21T08:03:28;101274.69;;;18.66;62.20
62051;BME280;48008;51.204;6.766;2022-08-21T08:05:56;101273.31;;;18.77;61.81
62051;BME280;48008;51.204;6.766;2022-08-21T08:08:23;101279.13;;;18.80;61.63
62051;BME280;48008;51.204;6.766;2022-08-21T08:10:50;101266.06;;;18.99;61.02
62051;BME280;48008;51.204;6.766;2022-08-21T08:13:18;101261.72;;;18.98;61.79
62051;BME280;48008;51.204;6.766;2022-08-21T08:15:44;101266.34;;;19.11;61.35
62051;BME280;48008;51.204;6.766;2022-08-21T08:18:11;101267.22;;;19.18;60.45
62051;BME280;48008;51.204;6.766;2022-08-21T08:20:38;101261.88;;;19.25;60.88
62051;BME280;48008;51.204;6.766;2022-08-21T08:23:04;101259.88;;;19.40;59.93
62051;BME280;48008;51.204;6.766;2022-08-21T08:25:31;101265.72;;;19.50;59.61
62051;BME280;48008;51.204;6.766;2022-08-21T08:27:58;101263.28;;;19.62;58.70
62051;BME280;48008;51.204;6.766;2022-08-21T08:30:25;101270.34;;;19.63;57.97
62051;BME280;48008;51.204;6.766;2022-08-21T08:32:53;101275.16;;;19.74;57.69
62051;BME280;48008;51.204;6.766;2022-08-21T08:35:20;101272.66;;;19.73;57.61
62051;BME280;48008;51.204;6.766;2022-08-21T08:37:47;101270.16;;;19.71;57.38
62051;BME280;48008;51.204;6.766;2022-08-21T08:40:20;101271.09;;;19.99;56.61
62051;BME280;48008;51.204;6.766;2022-08-21T08:42:49;101266.34;;;20.07;56.63
62051;BME280;48008;51.204;6.766;2022-08-21T08:45:19;101273.63;;;20.20;58.40
62051;BME280;48008;51.204;6.766;2022-08-21T08:47:53;101271.78;;;20.47;56.10
62051;BME280;48008;51.204;6.766;2022-08-21T08:51:00;101268.47;;;20.45;55.66
62051;BME280;48008;51.204;6.766;2022-08-21T08:53:19;101272.41;;;20.49;55.45
62051;BME280;48008;51.204;6.766;2022-08-21T08:55:51;101262.44;;;20.50;56.15
62051;BME280;48008;51.204;6.766;2022-08-21T08:58:23;101270.75;;;20.28;55.14
62051;BME280;48008;51.204;6.766;2022-08-21T09:00:53;101259.13;;;20.28;55.31
62051;BME280;48008;51.204;6.766;2022-08-21T09:03:22;101252.31;;;20.45;55.62
62051;BME280;48008;51.204;6.766;2022-08-21T09:06:02;101251.03;;;20.48;56.71
62051;BME280;48008;51.204;6.766;2022-08-21T09:12:12;101256.22;;;20.89;56.11
62051;BME280;48008;51.204;6.766;2022-08-21T09:15:02;101245.59;;;21.15;55.11
62051;BME280;48008;51.204;6.766;2022-08-21T09:17:55;101247.84;;;21.24;53.80
62051;BME280;48008;51.204;6.766;2022-08-21T09:20:37;101246.94;;;21.44;53.18
62051;BME280;48008;51.204;6.766;2022-08-21T09:26:12;101250.88;;;21.55;51.58
62051;BME280;48008;51.204;6.766;2022-08-21T09:28:40;101248.31;;;21.73;51.42
62051;BME280;48008;51.204;6.766;2022-08-21T09:31:16;101242.44;;;21.83;51.19
62051;BME280;48008;51.204;6.766;2022-08-21T09:33:47;101242.31;;;22.03;51.38
62051;BME280;48008;51.204;6.766;2022-08-21T09:36:25;101244.47;;;22.26;50.76
62051;BME280;48008;51.204;6.766;2022-08-21T09:38:54;101248.13;;;22.38;49.33
62051;BME280;48008;51.204;6.766;2022-08-21T09:41:29;101238.13;;;22.64;50.35
62051;BME280;48008;51.204;6.766;2022-08-21T09:43:57;101247.34;;;23.00;48.42
62051;BME280;48008;51.204;6.766;2022-08-21T09:46:26;101245.50;;;22.75;48.18
62051;BME280;48008;51.204;6.766;2022-08-21T09:48:57;101244.59;;;23.25;47.99
62051;BME280;48008;51.204;6.766;2022-08-21T09:51:28;101237.13;;;23.39;46.20
62051;BME280;48008;51.204;6.766;2022-08-21T09:54:14;101235.78;;;23.79;45.27
62051;BME280;48008;51.204;6.766;2022-08-21T09:57:00;101237.41;;;23.49;45.38
62051;BME280;48008;51.204;6.766;2022-08-21T09:59:47;101244.91;;;23.66;45.92
62051;BME280;48008;51.204;6.766;2022-08-21T10:02:25;101233.25;;;23.84;44.94
62051;BME280;48008;51.204;6.766;2022-08-21T10:04:57;101237.16;;;23.69;44.55
62051;BME280;48008;51.204;6.766;2022-08-21T10:07:27;101230.59;;;24.19;45.19
62051;BME280;48008;51.204;6.766;2022-08-21T10:10:02;101236.34;;;24.53;43.54
62051;BME280;48008;51.204;6.766;2022-08-21T10:16:02;101228.63;;;24.50;42.78
62051;BME280;48008;51.204;6.766;2022-08-21T10:18:22;101212.03;;;24.94;43.13
62051;BME280;48008;51.204;6.766;2022-08-21T10:24:07;101224.03;;;25.09;41.14
62051;BME280;48008;51.204;6.766;2022-08-21T10:35:29;101205.28;;;25.08;42.50
62051;BME280;48008;51.204;6.766;2022-08-21T10:41:00;101205.13;;;25.26;41.21
62051;BME280;48008;51.204;6.766;2022-08-21T10:55:10;101208.84;;;25.49;41.11
62051;BME280;48008;51.204;6.766;2022-08-21T10:57:54;101206.41;;;25.36;41.29
62051;BME280;48008;51.204;6.766;2022-08-21T11:00:30;101201.69;;;25.19;41.74
62051;BME280;48008;51.204;6.766;2022-08-21T11:03:05;101202.53;;;25.20;41.19
62051;BME280;48008;51.204;6.766;2022-08-21T11:05:45;101212.22;;;25.16;41.00
62051;BME280;48008;51.204;6.766;2022-08-21T11:08:22;101206.34;;;24.95;41.68
62051;BME280;48008;51.204;6.766;2022-08-21T11:11:10;101194.31;;;25.03;42.11
62051;BME280;48008;51.204;6.766;2022-08-21T11:14:03;101197.19;;;25.37;41.58
62051;BME280;48008;51.204;6.766;2022-08-21T11:16:40;101200.59;;;25.44;41.08
62051;BME280;48008;51.204;6.766;2022-08-21T11:19:15;101198.91;;;25.14;40.93
62051;BME280;48008;51.204;6.766;2022-08-21T11:21:58;101200.63;;;25.32;41.54
62051;BME280;48008;51.204;6.766;2022-08-21T11:24:38;101191.91;;;25.59;39.81
62051;BME280;48008;51.204;6.766;2022-08-21T11:27:28;101190.31;;;25.46;40.73
62051;BME280;48008;51.204;6.766;2022-08-21T11:30:00;101202.31;;;25.21;40.58
62051;BME280;48008;51.204;6.766;2022-08-21T11:32:58;101206.06;;;25.20;41.24
62051;BME280;48008;51.204;6.766;2022-08-21T11:35:54;101196.41;;;25.24;41.17
62051;BME280;48008;51.204;6.766;2022-08-21T11:38:42;101199.47;;;25.16;40.56
62051;BME280;48008;51.204;6.766;2022-08-21T11:41:34;101195.16;;;25.44;40.70
62051;BME280;48008;51.204;6.766;2022-08-21T11:44:32;101189.84;;;25.49;40.96
62051;BME280;48008;51.204;6.766;2022-08-21T11:47:12;101197.00;;;25.55;40.78
62051;BME280;48008;51.204;6.766;2022-08-21T11:50:19;101192.41;;;25.27;40.01
62051;BME280;48008;51.204;6.766;2022-08-21T11:52:38;101195.81;;;25.34;40.75
62051;BME280;48008;51.204;6.766;2022-08-21T11:57:56;101192.53;;;25.78;40.10
62051;BME280;48008;51.204;6.766;2022-08-21T12:00:33;101184.06;;;25.74;39.90
62051;BME280;48008;51.204;6.766;2022-08-21T12:03:11;101189.78;;;25.61;39.31
62051;BME280;48008;51.204;6.766;2022-08-21T12:05:43;101181.47;;;25.96;39.26
62051;BME280;48008;51.204;6.766;2022-08-21T12:08:25;101183.84;;;26.10;39.24
62051;BME280;48008;51.204;6.766;2022-08-21T12:16:46;101176.53;;;26.27;37.04
62051;BME280;48008;51.204;6.766;2022-08-21T12:22:08;101182.00;;;26.32;37.11
62051;BME280;48008;51.204;6.766;2022-08-21T12:24:43;101185.31;;;26.17;37.80
62051;BME280;48008;51.204;6.766;2022-08-21T12:27:27;101179.88;;;25.83;39.09
62051;BME280;48008;51.204;6.766;2022-08-21T12:30:00;101173.22;;;26.08;39.09
62051;BME280;48008;51.204;6.766;2022-08-21T12:32:30;101169.19;;;26.28;39.94
62051;BME280;48008;51.204;6.766;2022-08-21T12:35:11;101174.09;;;26.48;39.04
62051;BME280;48008;51.204;6.766;2022-08-21T12:37:47;101168.03;;;26.79;37.32
62051;BME280;48008;51.204;6.766;2022-08-21T12:40:28;101173.53;;;26.62;37.63
62051;BME280;48008;51.204;6.766;2022-08-21T12:42:59;101164.88;;;26.88;37.01
62051;BME280;48008;51.204;6.766;2022-08-21T12:45:30;101168.16;;;26.90;36.55
62051;BME280;48008;51.204;6.766;2022-08-21T12:48:16;101174.00;;;26.76;37.17
62051;BME280;48008;51.204;6.766;2022-08-21T12:50:49;101168.09;;;26.85;38.70
62051;BME280;48008;51.204;6.766;2022-08-21T12:53:26;101176.00;;;27.08;36.98
62051;BME280;48008;51.204;6.766;2022-08-21T12:55:55;101168.81;;;26.58;36.82
62051;BME280;48008;51.204;6.766;2022-08-21T12:58:27;101167.72;;;26.59;37.47
62051;BME280;48008;51.204;6.766;2022-08-21T13:00:59;101173.94;;;26.37;38.19
62051;BME280;48008;51.204;6.766;2022-08-21T13:03:28;101164.22;;;26.41;38.53
62051;BME280;48008;51.204;6.766;2022-08-21T13:05:55;101161.16;;;26.55;38.56
62051;BME280;48008;51.204;6.766;2022-08-21T13:08:24;101166.47;;;26.84;37.36
62051;BME280;48008;51.204;6.766;2022-08-21T13:10:59;101160.38;;;26.98;36.66
62051;BME280;48008;51.204;6.766;2022-08-21T13:13:28;101156.44;;;27.11;36.99
62051;BME280;48008;51.204;6.766;2022-08-21T13:16:04;101160.50;;;27.09;35.32
62051;BME280;48008;51.204;6.766;2022-08-21T13:18:36;101159.56;;;26.98;33.72
62051;BME280;48008;51.204;6.766;2022-08-21T13:21:14;101156.44;;;27.11;34.22
62051;BME280;48008;51.204;6.766;2022-08-21T13:23:41;101158.97;;;27.40;34.65
62051;BME280;48008;51.204;6.766;2022-08-21T13:26:13;101159.66;;;27.08;35.63
62051;BME280;48008;51.204;6.766;2022-08-21T13:28:43;101159.03;;;26.79;35.80
62051;BME280;48008;51.204;6.766;2022-08-21T13:31:19;101161.22;;;26.43;36.98
62051;BME280;48008;51.204;6.766;2022-08-21T13:33:48;101158.03;;;26.46;36.34
62051;BME280;48008;51.204;6.766;2022-08-21T13:36:24;101158.72;;;26.97;36.38
62051;BME280;48008;51.204;6.766;2022-08-21T13:38:52;101147.84;;;27.47;35.04
62051;BME280;48008;51.204;6.766;2022-08-21T13:41:26;101147.91;;;27.52;34.83
62051;BME280;48008;51.204;6.766;2022-08-21T13:44:00;101147.22;;;27.67;35.26
62051;BME280;48008;51.204;6.766;2022-08-21T13:46:33;101152.34;;;28.23;33.63
62051;BME280;48008;51.204;6.766;2022-08-21T13:49:03;101148.53;;;27.59;35.00
62051;BME280;48008;51.204;6.766;2022-08-21T13:51:32;101154.59;;;27.17;35.10